sensor_id;sensor_type;location;lat;lon;timestamp;temperature;humidity
46652;DHT22;32377;52.182;5.398;2023-03-20T00:00:30;8.90;99.90
46652;DHT22;32377;52.182;5.398;2023-03-20T00:02:56;8.90;99.90
46652;DHT22;32377;52.182;5.398;2023-03-20T00:05:23;8.90;99.90
46652;DHT22;32377;52.182;5.398;2023-03-20T00:07:51;8.90;99.90
46652;DHT22;32377;52.182;5.398;2023-03-20T00:10:18;8.90;99.90
46652;DHT22;32377;52.182;5.398;2023-03-20T00:12:45;8.90;99.90
46652;DHT22;32377;52.182;5.398;2023-03-20T00:15:29;8.90;99.90
46652;DHT22;32377;52.182;5.398;2023-03-20T00:17:55;8.90;99.90
46652;DHT22;32377;52.182;5.398;2023-03-20T00:20:22;8.90;99.90
46652;DHT22;32377;52.182;5.398;2023-03-20T00:22:48;8.90;99.90
46652;DHT22;32377;52.182;5.398;2023-03-20T00:25:15;8.80;99.90
46652;DHT22;32377;52.182;5.398;2023-03-20T00:27:42;8.80;99.90
46652;DHT22;32377;52.182;5.398;2023-03-20T00:32:49;8.90;99.90
46652;DHT22;32377;52.182;5.398;2023-03-20T00:35:29;8.90;99.90
46652;DHT22;32377;52.182;5.398;2023-03-20T00:37:56;8.80;99.90
46652;DHT22;32377;52.182;5.398;2023-03-20T00:40:26;8.90;99.90
46652;DHT22;32377;52.182;5.398;2023-03-20T00:42:57;8.80;99.90
46652;DHT22;32377;52.182;5.398;2023-03-20T00:45:23;8.80;99.90
46652;DHT22;32377;52.182;5.398;2023-03-20T00:47:50;8.90;99.90
46652;DHT22;32377;52.182;5.398;2023-03-20T00:50:21;8.90;99.90
46652;DHT22;32377;52.182;5.398;2023-03-20T00:52:49;8.90;99.90
46652;DHT22;32377;52.182;5.398;2023-03-20T00:55:15;8.90;99.90
46652;DHT22;32377;52.182;5.398;2023-03-20T00:57:49;8.90;99.90
46652;DHT22;32377;52.182;5.398;2023-03-20T01:00:23;8.80;99.90
46652;DHT22;32377;52.182;5.398;2023-03-20T01:02:54;8.80;99.90
46652;DHT22;32377;52.182;5.398;2023-03-20T01:05:21;8.80;99.90
46652;DHT22;32377;52.182;5.398;2023-03-20T01:07:46;8.90;99.90
46652;DHT22;32377;52.182;5.398;2023-03-20T01:10:13;8.80;99.90
46652;DHT22;32377;52.182;5.398;2023-03-20T01:12:39;8.90;99.90
46652;DHT22;32377;52.182;5.398;2023-03-20T01:15:22;8.80;99.90
46652;DHT22;32377;52.182;5.398;2023-03-20T01:17:48;8.80;99.90
46652;DHT22;32377;52.182;5.398;2023-03-20T01:20:22;8.80;99.90
46652;DHT22;32377;52.182;5.398;2023-03-20T01:22:48;8.80;99.90
46652;DHT22;32377;52.182;5.398;2023-03-20T01:25:14;8.80;99.90
46652;DHT22;32377;52.182;5.398;2023-03-20T01:27:45;8.80;99.90
46652;DHT22;32377;52.182;5.398;2023-03-20T01:30:21;8.80;99.90
46652;DHT22;32377;52.182;5.398;2023-03-20T01:32:47;8.80;99.90
46652;DHT22;32377;52.182;5.398;2023-03-20T01:35:15;8.80;99.90
46652;DHT22;32377;52.182;5.398;2023-03-20T01:37:42;8.80;99.90
46652;DHT22;32377;52.182;5.398;2023-03-20T01:40:20;8.80;99.90
46652;DHT22;32377;52.182;5.398;2023-03-20T01:42:46;8.80;99.90
46652;DHT22;32377;52.182;5.398;2023-03-20T01:45:19;8.80;99.90
46652;DHT22;32377;52.182;5.398;2023-03-20T01:47:46;8.80;99.90
46652;DHT22;32377;52.182;5.398;2023-03-20T01:50:27;8.80;99.90
46652;DHT22;32377;52.182;5.398;2023-03-20T01:53:15;8.80;99.90
46652;DHT22;32377;52.182;5.398;2023-03-20T01:55:42;8.70;99.90
46652;DHT22;32377;52.182;5.398;2023-03-20T01:58:15;8.70;99.90
46652;DHT22;32377;52.182;5.398;2023-03-20T02:00:41;8.60;99.90
46652;DHT22;32377;52.182;5.398;2023-03-20T02:03:07;8.60;99.90
46652;DHT22;32377;52.182;5.398;2023-03-20T02:05:34;8.60;99.90
46652;DHT22;32377;52.182;5.398;2023-03-20T02:08:25;8.60;99.90
46652;DHT22;32377;52.182;5.398;2023-03-20T02:10:52;8.60;99.90
46652;DHT22;32377;52.182;5.398;2023-03-20T02:13:19;8.60;99.90
46652;DHT22;32377;52.182;5.398;2023-03-20T02:16:00;8.60;99.90
46652;DHT22;32377;52.182;5.398;2023-03-20T02:18:26;8.60;99.90
46652;DHT22;32377;52.182;5.398;2023-03-20T02:27:08;8.60;99.90
46652;DHT22;32377;52.182;5.398;2023-03-20T02:38:29;8.50;99.90
46652;DHT22;32377;52.182;5.398;2023-03-20T02:49:27;8.40;99.90
46652;DHT22;32377;52.182;5.398;2023-03-20T02:55:06;8.40;99.90
46652;DHT22;32377;52.182;5.398;2023-03-20T02:58:09;8.40;99.90
46652;DHT22;32377;52.182;5.398;2023-03-20T03:00:46;8.40;99.90
46652;DHT22;32377;52.182;5.398;2023-03-20T03:03:28;8.30;99.90
46652;DHT22;32377;52.182;5.398;2023-03-20T03:06:18;8.30;99.90
46652;DHT22;32377;52.182;5.398;2023-03-20T03:08:46;8.20;99.90
46652;DHT22;32377;52.182;5.398;2023-03-20T03:11:12;8.20;99.90
46652;DHT22;32377;52.182;5.398;2023-03-20T03:13:42;8.20;99.90
46652;DHT22;32377;52.182;5.398;2023-03-20T03:16:13;8.20;99.90
46652;DHT22;32377;52.182;5.398;2023-03-20T03:18:41;8.20;99.90
46652;DHT22;32377;52.182;5.398;2023-03-20T03:21:10;8.20;99.90
46652;DHT22;32377;52.182;5.398;2023-03-20T03:23:48;8.10;99.90
46652;DHT22;32377;52.182;5.398;2023-03-20T03:26:21;8.10;99.90
46652;DHT22;32377;52.182;5.398;2023-03-20T03:28:49;8.00;99.90
46652;DHT22;32377;52.182;5.398;2023-03-20T03:31:18;8.00;99.90
46652;DHT22;32377;52.182;5.398;2023-03-20T03:33:47;8.00;99.90
46652;DHT22;32377;52.182;5.398;2023-03-20T03:39:44;7.90;99.90
46652;DHT22;32377;52.182;5.398;2023-03-20T03:42:00;7.90;99.90
46652;DHT22;32377;52.182;5.398;2023-03-20T03:47:44;7.80;99.90
46652;DHT22;32377;52.182;5.398;2023-03-20T03:50:22;7.80;99.90
46652;DHT22;32377;52.182;5.398;2023-03-20T03:52:50;7.80;99.90
46652;DHT22;32377;52.182;5.398;2023-03-20T03:55:22;7.70;99.90
46652;DHT22;32377;52.182;5.398;2023-03-20T03:58:03;7.70;99.90
46652;DHT22;32377;52.182;5.398;2023-03-20T04:00:31;7.70;99.90
46652;DHT22;32377;52.182;5.398;2023-03-20T04:02:58;7.60;99.90
46652;DHT22;32377;52.182;5.398;2023-03-20T04:05:29;7.60;99.90
46652;DHT22;32377;52.182;5.398;2023-03-20T04:07:58;7.60;99.90
46652;DHT22;32377;52.182;5.398;2023-03-20T04:10:24;7.60;99.90
46652;DHT22;32377;52.182;5.398;2023-03-20T04:12:50;7.60;99.90
46652;DHT22;32377;52.182;5.398;2023-03-20T04:15:16;7.60;99.90
46652;DHT22;32377;52.182;5.398;2023-03-20T04:17:43;7.70;99.90
46652;DHT22;32377;52.182;5.398;2023-03-20T04:20:10;7.60;99.90
46652;DHT22;32377;52.182;5.398;2023-03-20T04:22:36;7.60;99.90
46652;DHT22;32377;52.182;5.398;2023-03-20T04:25:03;7.60;99.90
46652;DHT22;32377;52.182;5.398;2023-03-20T04:27:30;7.50;99.90
46652;DHT22;32377;52.182;5.398;2023-03-20T04:29:56;7.60;99.90
46652;DHT22;32377;52.182;5.398;2023-03-20T04:32:21;7.60;99.90
46652;DHT22;32377;52.182;5.398;2023-03-20T04:34:47;7.60;99.90
46652;DHT22;32377;52.182;5.398;2023-03-20T04:37:13;7.50;99.90
46652;DHT22;32377;52.182;5.398;2023-03-20T04:39:38;7.50;99.90
46652;DHT22;32377;52.182;5.398;2023-03-20T04:42:07;7.60;99.90
46652;DHT22;32377;52.182;5.398;2023-03-20T04:44:33;7.60;99.90
46652;DHT22;32377;52.182;5.398;2023-03-20T04:46:59;7.60;99.90
46652;DHT22;32377;52.182;5.398;2023-03-20T04:49:25;7.60;99.90
46652;DHT22;32377;52.182;5.398;2023-03-20T04:51:51;7.50;99.90
46652;DHT22;32377;52.182;5.398;2023-03-20T04:54:17;7.50;99.90
46652;DHT22;32377;52.182;5.398;2023-03-20T04:59:13;7.50;99.90
46652;DHT22;32377;52.182;5.398;2023-03-20T05:01:38;7.50;99.90
46652;DHT22;32377;52.182;5.398;2023-03-20T05:04:04;7.50;99.90
46652;DHT22;32377;52.182;5.398;2023-03-20T05:06:30;7.50;99.90
46652;DHT22;32377;52.182;5.398;2023-03-20T05:08:56;7.40;99.90
46652;DHT22;32377;52.182;5.398;2023-03-20T05:11:24;7.50;99.90
46652;DHT22;32377;52.182;5.398;2023-03-20T05:13:50;7.50;99.90
46652;DHT22;32377;52.182;5.398;2023-03-20T05:16:16;7.50;99.90
46652;DHT22;32377;52.182;5.398;2023-03-20T05:18:41;7.50;99.90
46652;DHT22;32377;52.182;5.398;2023-03-20T05:21:07;7.50;99.90
46652;DHT22;32377;52.182;5.398;2023-03-20T05:23:33;7.40;99.90
46652;DHT22;32377;52.182;5.398;2023-03-20T05:25:59;7.50;99.90
46652;DHT22;32377;52.182;5.398;2023-03-20T05:28:25;7.50;99.90
46652;DHT22;32377;52.182;5.398;2023-03-20T05:30:51;7.50;99.90
46652;DHT22;32377;52.182;5.398;2023-03-20T05:33:17;7.50;99.90
46652;DHT22;32377;52.182;5.398;2023-03-20T05:35:42;7.50;99.90
46652;DHT22;32377;52.182;5.398;2023-03-20T05:38:08;7.50;99.90
46652;DHT22;32377;52.182;5.398;2023-03-20T05:40:33;7.50;99.90
46652;DHT22;32377;52.182;5.398;2023-03-20T05:42:59;7.40;99.90
46652;DHT22;32377;52.182;5.398;2023-03-20T05:45:25;7.40;99.90
46652;DHT22;32377;52.182;5.398;2023-03-20T05:47:50;7.40;99.90
46652;DHT22;32377;52.182;5.398;2023-03-20T05:50:16;7.50;99.90
46652;DHT22;32377;52.182;5.398;2023-03-20T05:52:42;7.50;99.90
46652;DHT22;32377;52.182;5.398;2023-03-20T05:55:07;7.50;99.90
46652;DHT22;32377;52.182;5.398;2023-03-20T05:57:33;7.50;99.90
46652;DHT22;32377;52.182;5.398;2023-03-20T05:59:58;7.50;99.90
46652;DHT22;32377;52.182;5.398;2023-03-20T06:02:24;7.50;99.90
46652;DHT22;32377;52.182;5.398;2023-03-20T06:04:50;7.50;99.90
46652;DHT22;32377;52.182;5.398;2023-03-20T06:07:16;7.50;99.90
46652;DHT22;32377;52.182;5.398;2023-03-20T06:09:41;7.60;99.90
46652;DHT22;32377;52.182;5.398;2023-03-20T06:12:08;7.60;99.90
46652;DHT22;32377;52.182;5.398;2023-03-20T06:14:34;7.50;99.90
46652;DHT22;32377;52.182;5.398;2023-03-20T06:16:59;7.60;99.90
46652;DHT22;32377;52.182;5.398;2023-03-20T06:19:25;7.50;99.90
46652;DHT22;32377;52.182;5.398;2023-03-20T06:21:51;7.60;99.90
46652;DHT22;32377;52.182;5.398;2023-03-20T06:24:16;7.60;99.90
46652;DHT22;32377;52.182;5.398;2023-03-20T06:26:42;7.60;99.90
46652;DHT22;32377;52.182;5.398;2023-03-20T06:29:08;7.50;99.90
46652;DHT22;32377;52.182;5.398;2023-03-20T06:31:33;7.50;99.90
46652;DHT22;32377;52.182;5.398;2023-03-20T06:33:59;7.50;99.90
46652;DHT22;32377;52.182;5.398;2023-03-20T06:36:24;7.50;99.90
46652;DHT22;32377;52.182;5.398;2023-03-20T06:38:50;7.50;99.90
46652;DHT22;32377;52.182;5.398;2023-03-20T06:41:16;7.50;99.90
46652;DHT22;32377;52.182;5.398;2023-03-20T06:43:42;7.50;99.90
46652;DHT22;32377;52.182;5.398;2023-03-20T06:46:08;7.50;99.90
46652;DHT22;32377;52.182;5.398;2023-03-20T06:48:34;7.60;99.90
46652;DHT22;32377;52.182;5.398;2023-03-20T06:50:59;7.60;99.90
46652;DHT22;32377;52.182;5.398;2023-03-20T06:53:25;7.70;99.90
46652;DHT22;32377;52.182;5.398;2023-03-20T06:55:51;7.60;99.90
46652;DHT22;32377;52.182;5.398;2023-03-20T06:58:17;7.60;99.90
46652;DHT22;32377;52.182;5.398;2023-03-20T07:00:43;7.60;99.90
46652;DHT22;32377;52.182;5.398;2023-03-20T07:03:09;7.60;99.90
46652;DHT22;32377;52.182;5.398;2023-03-20T07:05:36;7.70;99.90
46652;DHT22;32377;52.182;5.398;2023-03-20T07:08:03;7.70;99.90
46652;DHT22;32377;52.182;5.398;2023-03-20T07:10:28;7.70;99.90
46652;DHT22;32377;52.182;5.398;2023-03-20T07:12:54;7.70;99.90
46652;DHT22;32377;52.182;5.398;2023-03-20T07:15:20;7.70;99.90
46652;DHT22;32377;52.182;5.398;2023-03-20T07:17:46;7.70;99.90
46652;DHT22;32377;52.182;5.398;2023-03-20T07:20:12;7.70;99.90
46652;DHT22;32377;52.182;5.398;2023-03-20T07:22:38;7.70;99.90
46652;DHT22;32377;52.182;5.398;2023-03-20T07:25:06;7.70;99.90
46652;DHT22;32377;52.182;5.398;2023-03-20T07:27:32;7.70;99.90
46652;DHT22;32377;52.182;5.398;2023-03-20T07:29:58;7.70;99.90
46652;DHT22;32377;52.182;5.398;2023-03-20T07:32:23;7.80;99.90
46652;DHT22;32377;52.182;5.398;2023-03-20T07:34:49;7.80;99.90
46652;DHT22;32377;52.182;5.398;2023-03-20T07:37:15;7.80;99.90
46652;DHT22;32377;52.182;5.398;2023-03-20T07:39:41;7.80;99.90
46652;DHT22;32377;52.182;5.398;2023-03-20T07:42:07;7.90;99.90
46652;DHT22;32377;52.182;5.398;2023-03-20T07:44:32;7.90;99.90
46652;DHT22;32377;52.182;5.398;2023-03-20T07:46:58;7.90;99.90
46652;DHT22;32377;52.182;5.398;2023-03-20T07:49:23;7.90;99.90
46652;DHT22;32377;52.182;5.398;2023-03-20T07:51:51;8.00;99.90
46652;DHT22;32377;52.182;5.398;2023-03-20T07:54:19;8.00;99.90
46652;DHT22;32377;52.182;5.398;2023-03-20T07:56:45;8.00;99.90
46652;DHT22;32377;52.182;5.398;2023-03-20T07:59:12;8.00;99.90
46652;DHT22;32377;52.182;5.398;2023-03-20T08:01:37;8.00;99.90
46652;DHT22;32377;52.182;5.398;2023-03-20T08:04:03;8.00;99.90
46652;DHT22;32377;52.182;5.398;2023-03-20T08:06:29;8.00;99.90
46652;DHT22;32377;52.182;5.398;2023-03-20T08:08:54;8.00;99.90
46652;DHT22;32377;52.182;5.398;2023-03-20T08:11:20;8.00;99.90
46652;DHT22;32377;52.182;5.398;2023-03-20T08:13:46;8.00;99.90
46652;DHT22;32377;52.182;5.398;2023-03-20T08:16:11;8.10;99.90
46652;DHT22;32377;52.182;5.398;2023-03-20T08:18:37;8.10;99.90
46652;DHT22;32377;52.182;5.398;2023-03-20T08:21:03;8.10;99.90
46652;DHT22;32377;52.182;5.398;2023-03-20T08:23:29;8.10;99.90
46652;DHT22;32377;52.182;5.398;2023-03-20T08:25:54;8.20;99.90
46652;DHT22;32377;52.182;5.398;2023-03-20T08:28:21;8.30;99.90
46652;DHT22;32377;52.182;5.398;2023-03-20T08:30:47;8.30;99.90
46652;DHT22;32377;52.182;5.398;2023-03-20T08:33:14;8.40;99.90
46652;DHT22;32377;52.182;5.398;2023-03-20T08:35:41;8.40;99.90
46652;DHT22;32377;52.182;5.398;2023-03-20T08:38:11;8.50;99.90
46652;DHT22;32377;52.182;5.398;2023-03-20T08:40:39;8.50;99.90
46652;DHT22;32377;52.182;5.398;2023-03-20T08:43:06;8.60;99.90
46652;DHT22;32377;52.182;5.398;2023-03-20T08:45:31;8.70;99.90
46652;DHT22;32377;52.182;5.398;2023-03-20T08:47:57;8.70;99.90
46652;DHT22;32377;52.182;5.398;2023-03-20T08:50:22;8.80;99.90
46652;DHT22;32377;52.182;5.398;2023-03-20T08:52:48;8.80;99.90
46652;DHT22;32377;52.182;5.398;2023-03-20T08:55:14;8.90;99.90
46652;DHT22;32377;52.182;5.398;2023-03-20T08:57:41;8.90;99.90
46652;DHT22;32377;52.182;5.398;2023-03-20T09:00:11;8.90;99.90
46652;DHT22;32377;52.182;5.398;2023-03-20T09:02:39;8.90;99.90
46652;DHT22;32377;52.182;5.398;2023-03-20T09:05:05;9.00;99.90
46652;DHT22;32377;52.182;5.398;2023-03-20T09:07:31;8.90;99.90
46652;DHT22;32377;52.182;5.398;2023-03-20T09:09:57;8.90;99.90
46652;DHT22;32377;52.182;5.398;2023-03-20T09:12:23;8.80;99.90
46652;DHT22;32377;52.182;5.398;2023-03-20T09:14:48;8.80;99.90
46652;DHT22;32377;52.182;5.398;2023-03-20T09:17:14;8.80;99.90
46652;DHT22;32377;52.182;5.398;2023-03-20T09:19:40;8.80;99.90
46652;DHT22;32377;52.182;5.398;2023-03-20T09:22:12;8.80;99.90
46652;DHT22;32377;52.182;5.398;2023-03-20T09:24:38;8.90;99.90
46652;DHT22;32377;52.182;5.398;2023-03-20T09:27:04;8.80;99.90
46652;DHT22;32377;52.182;5.398;2023-03-20T09:29:30;8.80;99.90
46652;DHT22;32377;52.182;5.398;2023-03-20T09:31:55;8.80;99.90
46652;DHT22;32377;52.182;5.398;2023-03-20T09:34:21;8.80;99.90
46652;DHT22;32377;52.182;5.398;2023-03-20T09:36:48;8.90;99.90
46652;DHT22;32377;52.182;5.398;2023-03-20T09:39:14;9.00;99.90
46652;DHT22;32377;52.182;5.398;2023-03-20T09:41:39;9.00;99.90
46652;DHT22;32377;52.182;5.398;2023-03-20T09:44:26;8.90;99.90
46652;DHT22;32377;52.182;5.398;2023-03-20T09:47:35;9.00;99.90
46652;DHT22;32377;52.182;5.398;2023-03-20T09:50:20;9.00;99.90
46652;DHT22;32377;52.182;5.398;2023-03-20T09:53:09;9.10;99.90
46652;DHT22;32377;52.182;5.398;2023-03-20T09:55:38;9.10;99.90
46652;DHT22;32377;52.182;5.398;2023-03-20T09:58:17;9.20;99.90
46652;DHT22;32377;52.182;5.398;2023-03-20T10:00:45;9.20;99.90
46652;DHT22;32377;52.182;5.398;2023-03-20T10:03:25;9.20;99.90
46652;DHT22;32377;52.182;5.398;2023-03-20T10:05:56;9.30;99.90
46652;DHT22;32377;52.182;5.398;2023-03-20T10:08:30;9.30;99.90
46652;DHT22;32377;52.182;5.398;2023-03-20T10:16:39;9.40;99.90
46652;DHT22;32377;52.182;5.398;2023-03-20T10:30:32;9.50;99.90
46652;DHT22;32377;52.182;5.398;2023-03-20T10:40:45;9.40;99.90
46652;DHT22;32377;52.182;5.398;2023-03-20T10:43:23;9.40;99.90
46652;DHT22;32377;52.182;5.398;2023-03-20T10:45:58;9.30;99.90
46652;DHT22;32377;52.182;5.398;2023-03-20T10:48:40;9.20;99.90
46652;DHT22;32377;52.182;5.398;2023-03-20T10:51:15;9.20;99.90
46652;DHT22;32377;52.182;5.398;2023-03-20T10:53:59;9.10;99.90
46652;DHT22;32377;52.182;5.398;2023-03-20T11:01:55;9.30;99.90
46652;DHT22;32377;52.182;5.398;2023-03-20T11:04:20;9.40;99.90
46652;DHT22;32377;52.182;5.398;2023-03-20T11:09:38;9.40;99.90
46652;DHT22;32377;52.182;5.398;2023-03-20T11:12:04;9.40;99.90
46652;DHT22;32377;52.182;5.398;2023-03-20T11:14:38;9.40;99.90
46652;DHT22;32377;52.182;5.398;2023-03-20T11:17:05;9.40;99.90
46652;DHT22;32377;52.182;5.398;2023-03-20T11:19:35;9.30;99.90
46652;DHT22;32377;52.182;5.398;2023-03-20T11:22:18;9.30;99.90
46652;DHT22;32377;52.182;5.398;2023-03-20T11:24:51;9.30;99.90
46652;DHT22;32377;52.182;5.398;2023-03-20T11:27:40;9.20;99.90
46652;DHT22;32377;52.182;5.398;2023-03-20T11:30:06;9.30;99.90
46652;DHT22;32377;52.182;5.398;2023-03-20T11:32:45;9.20;99.90
46652;DHT22;32377;52.182;5.398;2023-03-20T11:37:44;9.40;99.90
46652;DHT22;32377;52.182;5.398;2023-03-20T11:40:33;9.40;99.90
46652;DHT22;32377;52.182;5.398;2023-03-20T11:45:25;9.40;99.90
46652;DHT22;32377;52.182;5.398;2023-03-20T11:47:54;9.50;99.90
46652;DHT22;32377;52.182;5.398;2023-03-20T11:50:29;9.50;99.90
46652;DHT22;32377;52.182;5.398;2023-03-20T11:52:55;9.60;99.90
46652;DHT22;32377;52.182;5.398;2023-03-20T11:55:30;9.60;99.90
46652;DHT22;32377;52.182;5.398;2023-03-20T11:58:02;9.60;99.90
46652;DHT22;32377;52.182;5.398;2023-03-20T12:00:39;9.80;99.90
46652;DHT22;32377;52.182;5.398;2023-03-20T12:06:52;9.80;99.90
46652;DHT22;32377;52.182;5.398;2023-03-20T12:09:42;9.70;99.90
46652;DHT22;32377;52.182;5.398;2023-03-20T12:26:17;9.60;99.90
46652;DHT22;32377;52.182;5.398;2023-03-20T12:32:07;9.60;99.90
46652;DHT22;32377;52.182;5.398;2023-03-20T12:34:45;9.70;99.90
46652;DHT22;32377;52.182;5.398;2023-03-20T12:37:13;9.50;99.90
46652;DHT22;32377;52.182;5.398;2023-03-20T12:39:52;9.60;99.90
46652;DHT22;32377;52.182;5.398;2023-03-20T12:42:39;9.60;99.90
46652;DHT22;32377;52.182;5.398;2023-03-20T12:45:15;9.60;99.90
46652;DHT22;32377;52.182;5.398;2023-03-20T12:48:05;9.70;99.90
46652;DHT22;32377;52.182;5.398;2023-03-20T12:50:52;9.70;99.90
46652;DHT22;32377;52.182;5.398;2023-03-20T12:54:06;9.70;99.90
46652;DHT22;32377;52.182;5.398;2023-03-20T12:57:00;9.60;99.90
46652;DHT22;32377;52.182;5.398;2023-03-20T13:02:33;9.60;99.90
46652;DHT22;32377;52.182;5.398;2023-03-20T13:05:21;9.50;99.90
46652;DHT22;32377;52.182;5.398;2023-03-20T13:10:33;9.70;99.90
46652;DHT22;32377;52.182;5.398;2023-03-20T13:13:25;9.60;99.90
46652;DHT22;32377;52.182;5.398;2023-03-20T13:16:12;9.50;99.90
46652;DHT22;32377;52.182;5.398;2023-03-20T13:18:51;9.50;99.90
46652;DHT22;32377;52.182;5.398;2023-03-20T13:21:30;9.50;99.90
46652;DHT22;32377;52.182;5.398;2023-03-20T13:38:16;9.70;99.90
46652;DHT22;32377;52.182;5.398;2023-03-20T13:40:45;9.60;99.90
46652;DHT22;32377;52.182;5.398;2023-03-20T13:45:47;9.50;99.90
46652;DHT22;32377;52.182;5.398;2023-03-20T13:48:39;9.50;99.90
46652;DHT22;32377;52.182;5.398;2023-03-20T14:04:43;9.50;99.90
46652;DHT22;32377;52.182;5.398;2023-03-20T14:07:29;9.50;99.90
46652;DHT22;32377;52.182;5.398;2023-03-20T14:09:55;9.50;99.90
46652;DHT22;32377;52.182;5.398;2023-03-20T14:12:25;9.50;99.90
46652;DHT22;32377;52.182;5.398;2023-03-20T14:14:55;9.50;99.90
46652;DHT22;32377;52.182;5.398;2023-03-20T14:17:29;9.50;99.90
46652;DHT22;32377;52.182;5.398;2023-03-20T14:19:56;9.60;99.90
46652;DHT22;32377;52.182;5.398;2023-03-20T14:22:33;9.60;99.90
46652;DHT22;32377;52.182;5.398;2023-03-20T14:25:05;9.40;99.90
46652;DHT22;32377;52.182;5.398;2023-03-20T14:33:37;9.30;99.90
46652;DHT22;32377;52.182;5.398;2023-03-20T14:35:45;9.40;99.90
46652;DHT22;32377;52.182;5.398;2023-03-20T14:38:26;9.30;99.90
46652;DHT22;32377;52.182;5.398;2023-03-20T14:43:53;9.30;99.90
46652;DHT22;32377;52.182;5.398;2023-03-20T14:49:34;9.30;99.90
46652;DHT22;32377;52.182;5.398;2023-03-20T14:55:13;9.30;99.90
46652;DHT22;32377;52.182;5.398;2023-03-20T14:57:39;9.30;99.90
46652;DHT22;32377;52.182;5.398;2023-03-20T15:00:17;9.30;99.90
46652;DHT22;32377;52.182;5.398;2023-03-20T15:02:47;9.30;99.90
46652;DHT22;32377;52.182;5.398;2023-03-20T15:05:27;9.30;99.90
46652;DHT22;32377;52.182;5.398;2023-03-20T15:08:06;9.40;99.90
46652;DHT22;32377;52.182;5.398;2023-03-20T15:10:44;9.40;99.90
46652;DHT22;32377;52.182;5.398;2023-03-20T15:13:12;9.40;99.90
46652;DHT22;32377;52.182;5.398;2023-03-20T15:15:54;9.30;99.90
46652;DHT22;32377;52.182;5.398;2023-03-20T15:18:22;9.40;99.90
46652;DHT22;32377;52.182;5.398;2023-03-20T15:20:48;9.40;99.90
46652;DHT22;32377;52.182;5.398;2023-03-20T15:23:14;9.40;99.90
46652;DHT22;32377;52.182;5.398;2023-03-20T15:25:42;9.40;99.90
46652;DHT22;32377;52.182;5.398;2023-03-20T15:28:19;9.40;99.90
46652;DHT22;32377;52.182;5.398;2023-03-20T15:30:49;9.30;99.90
46652;DHT22;32377;52.182;5.398;2023-03-20T15:33:17;9.30;99.90
46652;DHT22;32377;52.182;5.398;2023-03-20T15:35:44;9.40;99.90
46652;DHT22;32377;52.182;5.398;2023-03-20T15:38:13;9.30;99.90
46652;DHT22;32377;52.182;5.398;2023-03-20T15:40:40;9.30;99.90
46652;DHT22;32377;52.182;5.398;2023-03-20T15:45:43;9.30;99.90
46652;DHT22;32377;52.182;5.398;2023-03-20T15:48:18;9.20;99.90
46652;DHT22;32377;52.182;5.398;2023-03-20T15:50:59;9.30;99.90
46652;DHT22;32377;52.182;5.398;2023-03-20T15:53:35;9.30;99.90
46652;DHT22;32377;52.182;5.398;2023-03-20T15:56:11;9.30;99.90
46652;DHT22;32377;52.182;5.398;2023-03-20T15:58:38;9.30;99.90
46652;DHT22;32377;52.182;5.398;2023-03-20T16:01:05;9.30;99.90
46652;DHT22;32377;52.182;5.398;2023-03-20T16:03:34;9.30;99.90
46652;DHT22;32377;52.182;5.398;2023-03-20T16:06:02;9.30;99.90
46652;DHT22;32377;52.182;5.398;2023-03-20T16:08:31;9.30;99.90
46652;DHT22;32377;52.182;5.398;2023-03-20T16:11:00;9.30;99.90
46652;DHT22;32377;52.182;5.398;2023-03-20T16:13:31;9.30;99.90
46652;DHT22;32377;52.182;5.398;2023-03-20T16:15:58;9.20;99.90
46652;DHT22;32377;52.182;5.398;2023-03-20T16:18:24;9.20;99.90
46652;DHT22;32377;52.182;5.398;2023-03-20T16:20:56;9.30;99.90
46652;DHT22;32377;52.182;5.398;2023-03-20T16:23:39;9.20;99.90
46652;DHT22;32377;52.182;5.398;2023-03-20T16:26:07;9.30;99.90
46652;DHT22;32377;52.182;5.398;2023-03-20T16:28:36;9.30;99.90
46652;DHT22;32377;52.182;5.398;2023-03-20T16:31:29;9.20;99.90
46652;DHT22;32377;52.182;5.398;2023-03-20T16:34:07;9.30;99.90
46652;DHT22;32377;52.182;5.398;2023-03-20T16:36:35;9.30;99.90
46652;DHT22;32377;52.182;5.398;2023-03-20T16:39:18;9.30;99.90
46652;DHT22;32377;52.182;5.398;2023-03-20T16:41:45;9.30;99.90
46652;DHT22;32377;52.182;5.398;2023-03-20T16:44:14;9.30;99.90
46652;DHT22;32377;52.182;5.398;2023-03-20T16:47:19;9.30;99.90
46652;DHT22;32377;52.182;5.398;2023-03-20T16:52:40;9.20;99.90
46652;DHT22;32377;52.182;5.398;2023-03-20T16:55:14;9.30;99.90
46652;DHT22;32377;52.182;5.398;2023-03-20T16:59:17;9.30;99.90
46652;DHT22;32377;52.182;5.398;2023-03-20T17:01:44;9.30;99.90
46652;DHT22;32377;52.182;5.398;2023-03-20T17:04:34;9.30;99.90
46652;DHT22;32377;52.182;5.398;2023-03-20T17:09:34;9.30;99.90
46652;DHT22;32377;52.182;5.398;2023-03-20T17:12:13;9.30;99.90
46652;DHT22;32377;52.182;5.398;2023-03-20T17:14:40;9.30;99.90
46652;DHT22;32377;52.182;5.398;2023-03-20T17:17:16;9.30;99.90
46652;DHT22;32377;52.182;5.398;2023-03-20T17:19:44;9.40;99.90
46652;DHT22;32377;52.182;5.398;2023-03-20T17:22:21;9.40;99.90
46652;DHT22;32377;52.182;5.398;2023-03-20T17:24:47;9.40;99.90
46652;DHT22;32377;52.182;5.398;2023-03-20T17:27:13;9.40;99.90
46652;DHT22;32377;52.182;5.398;2023-03-20T17:29:39;9.40;99.90
46652;DHT22;32377;52.182;5.398;2023-03-20T17:32:13;9.40;99.90
46652;DHT22;32377;52.182;5.398;2023-03-20T17:34:40;9.40;99.90
46652;DHT22;32377;52.182;5.398;2023-03-20T17:37:14;9.40;99.90
46652;DHT22;32377;52.182;5.398;2023-03-20T17:39:41;9.40;99.90
46652;DHT22;32377;52.182;5.398;2023-03-20T17:42:18;9.40;99.90
46652;DHT22;32377;52.182;5.398;2023-03-20T17:44:44;9.40;99.90
46652;DHT22;32377;52.182;5.398;2023-03-20T17:47:15;9.40;99.90
46652;DHT22;32377;52.182;5.398;2023-03-20T17:49:41;9.40;99.90
46652;DHT22;32377;52.182;5.398;2023-03-20T17:52:18;9.40;99.90
46652;DHT22;32377;52.182;5.398;2023-03-20T17:54:44;9.40;99.90
46652;DHT22;32377;52.182;5.398;2023-03-20T17:59:43;9.40;99.90
46652;DHT22;32377;52.182;5.398;2023-03-20T18:02:09;9.40;99.90
46652;DHT22;32377;52.182;5.398;2023-03-20T18:04:35;9.40;99.90
46652;DHT22;32377;52.182;5.398;2023-03-20T18:07:01;9.40;99.90
46652;DHT22;32377;52.182;5.398;2023-03-20T18:09:26;9.40;99.90
46652;DHT22;32377;52.182;5.398;2023-03-20T18:11:52;9.50;99.90
46652;DHT22;32377;52.182;5.398;2023-03-20T18:14:17;9.50;99.90
46652;DHT22;32377;52.182;5.398;2023-03-20T18:16:44;9.50;99.90
46652;DHT22;32377;52.182;5.398;2023-03-20T18:19:23;9.50;99.90
46652;DHT22;32377;52.182;5.398;2023-03-20T18:21:51;9.50;99.90
46652;DHT22;32377;52.182;5.398;2023-03-20T18:24:17;9.40;99.90
46652;DHT22;32377;52.182;5.398;2023-03-20T18:26:42;9.50;99.90
46652;DHT22;32377;52.182;5.398;2023-03-20T18:29:11;9.50;99.90
46652;DHT22;32377;52.182;5.398;2023-03-20T18:31:37;9.50;99.90
46652;DHT22;32377;52.182;5.398;2023-03-20T18:34:03;9.50;99.90
46652;DHT22;32377;52.182;5.398;2023-03-20T18:36:29;9.50;99.90
46652;DHT22;32377;52.182;5.398;2023-03-20T18:38:55;9.50;99.90
46652;DHT22;32377;52.182;5.398;2023-03-20T18:41:21;9.50;99.90
46652;DHT22;32377;52.182;5.398;2023-03-20T18:43:47;9.60;99.90